createdAt,value
2023-03-23T15:58:43.112Z,1.15
2023-03-23T16:01:48.516Z,1.10
2023-03-23T16:04:51.518Z,1.00
2023-03-23T16:07:54.146Z,1.00
2023-03-23T16:10:56.578Z,1.00
2023-03-23T16:13:59.611Z,1.23
2023-03-23T16:17:03.979Z,1.10
2023-03-23T16:20:13.537Z,1.20
2023-03-23T16:23:16.467Z,1.20
2023-03-23T16:26:19.369Z,1.20
2023-03-23T16:29:37.060Z,1.25
2023-03-23T16:32:46.689Z,1.00
2023-03-23T16:35:49.467Z,1.10
2023-03-23T16:38:53.658Z,1.55
2023-03-23T16:41:57.333Z,1.05
2023-03-23T16:44:59.909Z,1.70
2023-03-23T16:48:03.947Z,1.42
2023-03-23T16:51:07.278Z,1.52
2023-03-23T16:54:09.798Z,1.80
2023-03-23T16:57:12.419Z,1.45
2023-03-23T17:00:20.072Z,1.25
2023-03-23T17:03:24.098Z,1.73
2023-03-23T17:06:26.739Z,1.60
2023-03-23T17:09:29.435Z,1.58
2023-03-23T17:12:31.939Z,1.60
2023-03-23T17:15:36.683Z,1.75
2023-03-23T17:18:40.490Z,1.60
2023-03-23T17:21:43.543Z,2.08
2023-03-23T17:24:47.595Z,1.77
2023-03-23T17:27:50.041Z,1.95
2023-03-23T17:30:53.414Z,2.00
2023-03-23T17:33:57.806Z,1.83
2023-03-23T17:37:00.325Z,1.52
2023-03-23T17:40:03.257Z,2.22
2023-03-23T17:43:06.827Z,2.30
2023-03-23T17:46:11.177Z,2.15
2023-03-23T17:49:15.025Z,1.70
2023-03-23T17:52:17.518Z,1.83
2023-03-23T17:55:20.216Z,1.90
2023-03-23T17:58:23.029Z,1.70
2023-03-23T18:01:26.042Z,2.13
